createdAt,value
2019-03-13T00:01:00.440Z,39.77
2019-03-13T00:06:53.048Z,38.70
2019-03-13T00:15:42.959Z,34.80
2019-03-13T00:21:07.331Z,39.00
2019-03-13T00:23:48.568Z,40.03
2019-03-13T00:26:32.674Z,35.87
2019-03-13T00:29:12.746Z,37.33
2019-03-13T00:31:54.212Z,36.60
2019-03-13T00:34:40.058Z,35.80
2019-03-13T00:39:59.717Z,33.47
2019-03-13T00:42:49.238Z,37.37
2019-03-13T00:45:54.709Z,33.43
2019-03-13T00:48:10.567Z,35.73
2019-03-13T00:51:01.955Z,37.27
2019-03-13T00:53:51.122Z,32.33
2019-03-13T00:56:24.535Z,31.10
2019-03-13T01:02:04.502Z,36.03
2019-03-13T01:04:54.930Z,37.50
2019-03-13T01:07:27.763Z,35.70
2019-03-13T01:10:16.902Z,36.80
2019-03-13T01:12:58.113Z,31.00
2019-03-13T01:16:05.960Z,39.00
2019-03-13T01:18:50.215Z,28.60
2019-03-13T01:21:39.950Z,24.80
2019-03-13T01:24:21.725Z,32.37
2019-03-13T01:27:05.789Z,35.40
2019-03-13T01:29:24.532Z,29.63
2019-03-13T01:32:28.142Z,35.90
2019-03-13T01:35:16.177Z,35.47
2019-03-13T01:37:58.139Z,32.37
2019-03-13T01:40:37.761Z,35.00
2019-03-13T01:43:19.744Z,29.93
2019-03-13T01:51:47.246Z,30.87
2019-03-13T01:54:41.741Z,29.77
2019-03-13T01:57:25.262Z,30.57
2019-03-13T02:02:27.327Z,24.77
2019-03-13T02:05:00.826Z,26.33
2019-03-13T02:10:52.583Z,28.67
2019-03-13T02:13:26.602Z,31.13
2019-03-13T02:16:08.057Z,26.00
2019-03-13T02:21:28.925Z,27.87
2019-03-13T02:24:10.287Z,24.53
2019-03-13T02:26:49.136Z,22.30
2019-03-13T02:29:35.735Z,23.60
2019-03-13T02:32:14.760Z,24.37
2019-03-13T02:40:55.423Z,25.93
2019-03-13T02:43:27.508Z,26.73
2019-03-13T02:46:36.611Z,32.00
2019-03-13T02:49:10.972Z,31.00
2019-03-13T02:51:41.102Z,26.97
2019-03-13T02:54:10.217Z,26.40
2019-03-13T02:57:01.620Z,23.23
2019-03-13T02:59:31.599Z,25.53
2019-03-13T03:02:29.705Z,22.43
2019-03-13T03:05:25.340Z,18.80
2019-03-13T03:10:49.647Z,19.47
2019-03-13T03:13:31.320Z,19.83
2019-03-13T03:16:21.719Z,18.67
2019-03-13T03:19:10.982Z,21.97
2019-03-13T03:21:46.207Z,22.67
2019-03-13T03:32:57.240Z,18.73
2019-03-13T03:38:40.651Z,20.43
2019-03-13T03:41:24.271Z,17.50
2019-03-13T03:44:12.972Z,19.47
2019-03-13T03:47:04.445Z,19.30
2019-03-13T03:49:53.218Z,18.60
2019-03-13T03:52:35.095Z,19.77
2019-03-13T03:57:55.683Z,19.73
2019-03-13T04:00:37.178Z,20.73
2019-03-13T04:03:16.249Z,16.83
2019-03-13T04:06:00.512Z,16.70
2019-03-13T04:08:44.544Z,18.93
2019-03-13T04:14:08.704Z,16.17
2019-03-13T04:17:11.337Z,15.43
2019-03-13T04:22:20.598Z,14.63
2019-03-13T04:25:29.643Z,20.30
2019-03-13T04:30:47.586Z,15.10
2019-03-13T04:36:44.524Z,17.40
2019-03-13T04:42:09.192Z,16.77
2019-03-13T04:48:03.085Z,17.37
2019-03-13T04:50:47.732Z,14.93
2019-03-13T04:53:29.273Z,17.53
2019-03-13T04:58:54.231Z,14.83
2019-03-13T05:01:26.492Z,14.67
2019-03-13T05:07:18.002Z,13.23
2019-03-13T05:09:59.664Z,15.13
2019-03-13T05:15:16.382Z,13.20
2019-03-13T05:17:45.740Z,16.57
2019-03-13T05:20:15.840Z,15.13
2019-03-13T05:22:45.012Z,16.30
2019-03-13T05:25:14.096Z,12.23
2019-03-13T05:27:45.642Z,15.10
2019-03-13T05:30:32.007Z,14.33
2019-03-13T05:33:25.988Z,15.23
2019-03-13T05:44:10.545Z,14.87
2019-03-13T05:46:59.444Z,14.57
2019-03-13T05:49:29.391Z,13.53
2019-03-13T05:52:17.027Z,15.20
2019-03-13T05:54:50.478Z,15.80
2019-03-13T05:57:39.543Z,15.63
2019-03-13T06:00:21.686Z,16.10
2019-03-13T06:03:04.772Z,11.73
2019-03-13T06:05:46.246Z,15.83
2019-03-13T06:08:27.563Z,13.63
2019-03-13T06:11:09.868Z,10.47
2019-03-13T06:13:51.640Z,12.40
2019-03-13T06:19:09.751Z,18.60
2019-03-13T06:21:50.915Z,11.30
2019-03-13T06:24:32.969Z,9.67
2019-03-13T06:29:57.243Z,10.33
2019-03-13T06:35:18.661Z,10.57
2019-03-13T06:37:59.753Z,10.27
2019-03-13T06:40:41.442Z,10.40
2019-03-13T06:46:02.294Z,9.03
2019-03-13T06:51:26.618Z,8.67
2019-03-13T06:54:09.931Z,9.57
2019-03-13T06:56:50.830Z,11.97
2019-03-13T06:59:57.455Z,8.57
2019-03-13T07:02:54.399Z,10.77
2019-03-13T07:05:57.663Z,9.97
2019-03-13T07:11:21.003Z,10.70
2019-03-13T07:14:07.209Z,13.53
2019-03-13T07:16:57.964Z,10.03
2019-03-13T07:19:46.839Z,11.03
2019-03-13T07:22:38.383Z,13.27
2019-03-13T07:25:42.763Z,12.37
2019-03-13T07:31:34.110Z,19.50
2019-03-13T07:34:28.816Z,15.33
2019-03-13T07:37:05.928Z,15.23
2019-03-13T07:39:53.815Z,15.50
2019-03-13T07:42:35.388Z,11.63
2019-03-13T07:45:23.911Z,8.50
2019-03-13T07:48:01.657Z,10.97
2019-03-13T07:50:51.484Z,10.87
2019-03-13T07:56:29.738Z,12.37
2019-03-13T07:59:33.109Z,10.37
2019-03-13T08:04:58.845Z,11.13
2019-03-13T08:08:02.250Z,11.40
2019-03-13T08:10:43.977Z,12.07
2019-03-13T08:16:50.501Z,15.23
2019-03-13T08:22:33.481Z,16.07
2019-03-13T08:31:20.304Z,16.00
2019-03-13T08:34:26.752Z,14.13
2019-03-13T08:37:29.012Z,17.17
2019-03-13T08:40:19.288Z,16.40
2019-03-13T08:43:29.195Z,14.20
2019-03-13T08:46:18.198Z,14.83
2019-03-13T08:48:59.863Z,14.27
2019-03-13T08:51:47.963Z,15.00
2019-03-13T08:54:39.829Z,14.33
2019-03-13T08:57:27.815Z,13.10
2019-03-13T09:00:44.609Z,13.20
2019-03-13T09:03:54.565Z,16.77
2019-03-13T09:06:50.538Z,11.77
2019-03-13T09:09:55.577Z,12.53
2019-03-13T09:15:48.069Z,12.10
2019-03-13T09:18:51.850Z,10.23
2019-03-13T09:25:11.672Z,10.00
2019-03-13T09:27:51.639Z,11.40
2019-03-13T09:33:23.807Z,11.90
2019-03-13T09:36:19.419Z,11.07
2019-03-13T09:39:39.500Z,13.07
2019-03-13T09:45:05.603Z,9.93
2019-03-13T09:50:19.418Z,10.17
2019-03-13T09:59:43.595Z,9.93
2019-03-13T10:02:23.843Z,5.97
2019-03-13T10:05:25.045Z,7.33
2019-03-13T10:08:27.022Z,6.80
2019-03-13T10:11:26.984Z,6.97
2019-03-13T10:14:27.543Z,12.20
2019-03-13T10:17:21.972Z,5.40
2019-03-13T10:23:55.697Z,9.63
2019-03-13T10:26:43.801Z,9.83
2019-03-13T10:29:32.018Z,7.13
2019-03-13T10:32:31.893Z,8.97
2019-03-13T10:35:36.342Z,5.43
2019-03-13T10:38:53.433Z,7.23
2019-03-13T10:41:47.008Z,6.03
2019-03-13T10:44:30.813Z,4.63
2019-03-13T10:49:56.600Z,6.53
2019-03-13T10:52:57.866Z,6.27
2019-03-13T10:55:55.342Z,4.80
2019-03-13T10:59:05.594Z,4.63
2019-03-13T11:01:46.636Z,8.40
2019-03-13T11:04:33.363Z,7.43
2019-03-13T11:07:11.685Z,6.83
2019-03-13T11:10:11.803Z,4.70
2019-03-13T11:13:11.976Z,3.80
2019-03-13T11:16:12.524Z,4.17
2019-03-13T11:19:10.430Z,8.67
2019-03-13T11:21:53.430Z,7.70
2019-03-13T11:24:30.567Z,6.93
2019-03-13T11:27:13.206Z,5.07
2019-03-13T11:30:21.779Z,3.60
2019-03-13T11:33:22.826Z,3.77
2019-03-13T11:38:59.267Z,4.27
2019-03-13T11:42:02.510Z,3.73
2019-03-13T11:45:02.922Z,4.23
2019-03-13T11:47:54.198Z,2.20
2019-03-13T11:50:42.141Z,7.07
2019-03-13T11:57:17.103Z,7.03
2019-03-13T11:59:54.118Z,7.47
2019-03-13T12:05:30.644Z,5.93
2019-03-13T12:08:37.761Z,3.43
2019-03-13T12:11:30.656Z,7.13
2019-03-13T12:16:51.705Z,2.17
2019-03-13T12:19:57.971Z,3.17
2019-03-13T12:22:39.531Z,2.80
2019-03-13T12:25:39.432Z,5.30
2019-03-13T12:28:17.860Z,3.87
2019-03-13T12:34:02.160Z,8.33
2019-03-13T12:39:28.395Z,7.17
2019-03-13T12:42:28.317Z,6.97
2019-03-13T12:45:48.290Z,7.57
2019-03-13T12:48:36.044Z,6.07
2019-03-13T12:51:24.907Z,2.73
2019-03-13T12:57:18.463Z,5.93
2019-03-13T13:01:10.725Z,5.03
2019-03-13T13:03:29.258Z,4.10
2019-03-13T13:06:19.842Z,2.37
2019-03-13T13:09:05.471Z,4.93
2019-03-13T13:15:09.015Z,3.67
2019-03-13T13:18:15.046Z,3.57
2019-03-13T13:21:01.693Z,5.73
2019-03-13T13:23:54.977Z,4.93
2019-03-13T13:26:56.414Z,4.00
2019-03-13T13:32:04.461Z,6.53
2019-03-13T13:34:52.639Z,3.50
2019-03-13T13:37:34.905Z,2.90
2019-03-13T13:42:57.086Z,6.83
2019-03-13T13:48:26.634Z,3.40
2019-03-13T13:50:55.831Z,3.33
2019-03-13T13:53:26.483Z,5.13
2019-03-13T13:56:17.570Z,4.73
2019-03-13T13:58:50.022Z,3.63
2019-03-13T14:01:39.193Z,6.13
2019-03-13T14:04:20.494Z,5.10
2019-03-13T14:12:28.100Z,2.77
2019-03-13T14:15:09.392Z,5.40
2019-03-13T14:17:50.774Z,3.47
2019-03-13T14:20:29.192Z,5.57
2019-03-13T14:25:59.552Z,6.30
2019-03-13T14:28:40.985Z,3.17
2019-03-13T14:31:22.426Z,4.63
2019-03-13T14:34:03.598Z,3.37
2019-03-13T14:36:45.115Z,3.30
2019-03-13T14:39:29.870Z,7.37
2019-03-13T14:44:59.172Z,4.70
2019-03-13T14:50:22.353Z,3.43
2019-03-13T14:58:34.140Z,2.90
2019-03-13T15:04:18.296Z,8.00
2019-03-13T15:09:41.385Z,4.37
2019-03-13T15:12:24.454Z,6.77
2019-03-13T15:15:25.562Z,8.43
2019-03-13T15:17:58.485Z,3.90
2019-03-13T15:26:03.830Z,7.40
2019-03-13T15:28:52.710Z,6.43
2019-03-13T15:31:42.605Z,4.83
2019-03-13T15:34:16.549Z,7.87
2019-03-13T15:40:02.476Z,10.73
2019-03-13T15:42:43.930Z,5.47
2019-03-13T15:45:26.575Z,5.17
2019-03-13T15:48:08.447Z,11.47
2019-03-13T15:50:51.454Z,5.27
2019-03-13T15:53:35.280Z,3.47
2019-03-13T15:56:44.151Z,2.97
2019-03-13T15:59:04.465Z,8.00
2019-03-13T16:04:58.137Z,8.13
2019-03-13T16:10:03.067Z,6.20
2019-03-13T16:12:44.802Z,7.73
2019-03-13T16:18:06.481Z,9.03
2019-03-13T16:20:47.749Z,9.37
2019-03-13T16:29:03.720Z,8.37
2019-03-13T16:31:54.593Z,7.60
2019-03-13T16:34:43.580Z,13.63
2019-03-13T16:37:26.710Z,10.93
2019-03-13T16:40:07.892Z,13.03
2019-03-13T16:42:49.744Z,15.33
2019-03-13T16:48:11.212Z,15.97
2019-03-13T16:50:52.194Z,14.37
2019-03-13T16:53:34.123Z,19.43
2019-03-13T16:59:10.898Z,15.50
2019-03-13T17:01:51.733Z,16.33
2019-03-13T17:04:33.481Z,13.97
2019-03-13T17:07:16.978Z,17.53
2019-03-13T17:09:54.987Z,13.50
2019-03-13T17:12:36.824Z,17.20
2019-03-13T17:15:15.693Z,15.07
2019-03-13T17:18:00.737Z,20.07
2019-03-13T17:20:42.062Z,12.83
2019-03-13T17:23:24.387Z,16.50
2019-03-13T17:26:32.188Z,18.40
2019-03-13T17:28:56.228Z,21.17
2019-03-13T17:34:31.494Z,18.67
2019-03-13T17:37:13.185Z,18.80
2019-03-13T17:39:55.410Z,17.00
2019-03-13T17:42:37.093Z,15.90
2019-03-13T17:45:20.702Z,14.87
2019-03-13T17:48:01.974Z,17.60
2019-03-13T17:53:22.808Z,13.93
2019-03-13T17:56:05.673Z,11.77
2019-03-13T17:58:48.240Z,17.10
2019-03-13T18:01:30.886Z,15.10
2019-03-13T18:04:12.308Z,16.40
2019-03-13T18:07:07.904Z,17.23
2019-03-13T18:09:51.127Z,16.23
2019-03-13T18:15:10.284Z,15.03
2019-03-13T18:17:54.263Z,12.83
2019-03-13T18:23:18.650Z,16.03
2019-03-13T18:26:01.269Z,15.97
2019-03-13T18:28:46.644Z,19.47
2019-03-13T18:31:28.369Z,20.87
2019-03-13T18:37:08.412Z,16.37
2019-03-13T18:42:29.216Z,12.67
2019-03-13T18:45:16.510Z,14.67
2019-03-13T18:47:57.707Z,16.67
2019-03-13T18:53:22.727Z,14.23
2019-03-13T18:55:53.510Z,13.17
2019-03-13T18:58:23.388Z,12.43
2019-03-13T19:01:13.640Z,13.00
2019-03-13T19:04:02.442Z,21.43
2019-03-13T19:06:44.119Z,29.93
2019-03-13T19:09:22.609Z,26.77
2019-03-13T19:12:04.229Z,23.97
2019-03-13T19:17:29.566Z,18.57
2019-03-13T19:20:12.138Z,23.53
2019-03-13T19:22:54.856Z,31.60
2019-03-13T19:25:37.191Z,34.60
2019-03-13T19:28:19.192Z,29.77
2019-03-13T19:31:00.495Z,26.20
2019-03-13T19:33:41.895Z,20.47
2019-03-13T19:36:23.560Z,15.70
2019-03-13T19:39:06.947Z,15.10
2019-03-13T19:41:48.824Z,18.03
2019-03-13T19:44:18.891Z,14.23
2019-03-13T19:46:50.824Z,15.90
2019-03-13T19:55:18.050Z,12.90
2019-03-13T19:57:59.787Z,18.57
2019-03-13T20:03:20.677Z,14.20
2019-03-13T20:06:02.440Z,17.97
2019-03-13T20:08:41.080Z,14.40
2019-03-13T20:11:22.715Z,17.43
2019-03-13T20:14:03.855Z,12.73
2019-03-13T20:16:46.600Z,16.73
2019-03-13T20:19:25.933Z,14.50
2019-03-13T20:22:07.617Z,14.00
2019-03-13T20:24:46.044Z,14.93
2019-03-13T20:27:29.487Z,17.13
2019-03-13T20:30:10.643Z,19.87
2019-03-13T20:32:52.368Z,16.47
2019-03-13T20:40:59.845Z,12.47
2019-03-13T20:49:07.937Z,14.97
2019-03-13T20:51:58.898Z,16.20
2019-03-13T20:54:47.710Z,15.67
2019-03-13T21:00:48.534Z,12.37
2019-03-13T21:03:18.573Z,19.27
2019-03-13T21:06:07.322Z,17.37
2019-03-13T21:08:37.123Z,12.87
2019-03-13T21:11:07.263Z,15.30
2019-03-13T21:13:55.309Z,15.20
2019-03-13T21:16:36.477Z,17.77
2019-03-13T21:19:06.277Z,16.37
2019-03-13T21:21:55.375Z,15.93
2019-03-13T21:24:37.093Z,15.30
2019-03-13T21:27:18.497Z,14.23
2019-03-13T21:30:00.410Z,15.83
2019-03-13T21:35:22.731Z,16.73
2019-03-13T21:38:03.983Z,13.67
2019-03-13T21:40:45.359Z,13.93
2019-03-13T21:46:07.593Z,18.27
2019-03-13T21:48:46.531Z,13.97
2019-03-13T21:51:29.124Z,15.40
2019-03-13T21:54:08.067Z,15.70
2019-03-13T21:56:37.602Z,18.90
2019-03-13T21:59:07.300Z,17.50
2019-03-13T22:01:56.230Z,10.00
2019-03-13T22:07:20.208Z,13.90
2019-03-13T22:10:01.343Z,13.27
2019-03-13T22:12:42.709Z,13.63
2019-03-13T22:17:55.316Z,10.40
2019-03-13T22:20:24.534Z,11.70
2019-03-13T22:23:14.613Z,18.93
2019-03-13T22:26:03.401Z,15.43
2019-03-13T22:28:44.774Z,11.07
2019-03-13T22:31:26.472Z,11.70
2019-03-13T22:34:07.714Z,10.83
2019-03-13T22:36:51.296Z,12.60
2019-03-13T22:42:24.445Z,9.97
2019-03-13T22:45:07.453Z,11.00
2019-03-13T22:47:48.785Z,10.03
2019-03-13T22:53:13.653Z,9.23
2019-03-13T22:55:42.879Z,10.43
2019-03-13T22:58:12.685Z,9.97
2019-03-13T23:01:15.690Z,7.60
2019-03-13T23:03:45.476Z,11.00
2019-03-13T23:06:15.617Z,8.43
2019-03-13T23:08:45.317Z,12.23
2019-03-13T23:11:15.053Z,9.23
2019-03-13T23:13:44.114Z,8.00
2019-03-13T23:16:13.831Z,9.00
2019-03-13T23:18:42.818Z,12.40
2019-03-13T23:21:12.622Z,10.23
2019-03-13T23:23:42.234Z,8.83
2019-03-13T23:29:20.593Z,9.33
2019-03-13T23:31:50.410Z,8.13
2019-03-13T23:34:38.527Z,11.97
2019-03-13T23:37:26.613Z,7.13
2019-03-13T23:40:08.378Z,11.27
2019-03-13T23:42:49.915Z,8.27
2019-03-13T23:45:31.791Z,8.30
2019-03-13T23:48:13.199Z,6.10
2019-03-13T23:50:51.380Z,7.73
2019-03-13T23:53:33.137Z,9.73
2019-03-13T23:56:11.264Z,8.30
2019-03-13T23:58:54.187Z,9.20
